Menahga, Minnesota
Current Conditions -  °F | °C
As of 2:53 PM on Saturday 22 Nov 2014 (Local Time) from KPKD Reporting Station
Clear Clear  
Wind Chill: 40°   Ceiling: Unl
Heat Index: 44°   Visibility: 10mi
Dew Point: 31°   Wind: 7mph
Humidity: 60%   Direction: 150°SSE
Pressure: 29.52"   Gusts: NA
Location:  46.75°N, 95.1°W
Report Text: KPKD 222053Z AUTO 15006KT 10SM CLR 07/M01 A2952 RMK AO2 SLP013 T00671006 56019
Loading
Personal Weather Stations






























Interactive Weather Map New forecast layout! Learn more

10-Day Weather Forecast

Advertisements
Track Severe Weather on mobile